createdAt,value
2022-09-12T00:01:10.584Z,101674.81
2022-09-12T00:03:37.562Z,101674.84
2022-09-12T00:06:08.209Z,101672.28
2022-09-12T00:08:34.598Z,101672.28
2022-09-12T00:11:04.633Z,101668.66
2022-09-12T00:13:30.892Z,101669.47
2022-09-12T00:15:57.147Z,101666.84
2022-09-12T00:18:23.437Z,101670.34
2022-09-12T00:20:49.989Z,101661.53
2022-09-12T00:23:16.260Z,101673.78
2022-09-12T00:25:43.493Z,101664.97
2022-09-12T00:28:10.200Z,101660.50
2022-09-12T00:30:40.140Z,101650.81
2022-09-12T00:33:06.419Z,101652.50
2022-09-12T00:35:32.685Z,101657.63
2022-09-12T00:37:59.183Z,101650.47
2022-09-12T00:40:25.462Z,101649.63
2022-09-12T00:42:52.280Z,101654.84
2022-09-12T00:45:27.587Z,101651.31
2022-09-12T00:47:54.658Z,101663.66
2022-09-12T00:50:20.943Z,101649.56
2022-09-12T00:52:50.950Z,101655.69
2022-09-12T00:55:22.363Z,101655.63
2022-09-12T00:58:00.004Z,101646.75
2022-09-12T01:00:27.166Z,101652.84
2022-09-12T01:02:58.741Z,101645.78
2022-09-12T01:05:25.800Z,101643.06
2022-09-12T01:07:52.346Z,101644.78
2022-09-12T01:10:19.442Z,101645.59
2022-09-12T01:12:46.267Z,101643.81
2022-09-12T01:15:12.589Z,101638.53
2022-09-12T01:17:50.198Z,101639.38
2022-09-12T01:20:19.501Z,101636.72
2022-09-12T01:22:58.101Z,101640.25
2022-09-12T01:25:27.453Z,101633.22
2022-09-12T01:28:09.101Z,101628.78
2022-09-12T01:30:45.832Z,101634.06
2022-09-12T01:33:15.093Z,101638.47
2022-09-12T01:35:50.570Z,101641.09
2022-09-12T01:38:34.419Z,101643.75
2022-09-12T01:41:09.968Z,101636.59
2022-09-12T01:43:43.065Z,101642.69
2022-09-12T01:46:14.565Z,101635.59
2022-09-12T01:48:44.184Z,101638.22
2022-09-12T01:51:18.773Z,101630.22
2022-09-12T01:53:48.266Z,101629.28
2022-09-12T01:56:22.436Z,101626.56
2022-09-12T01:59:01.456Z,101628.28
2022-09-12T02:01:29.570Z,101624.72
2022-09-12T02:03:56.151Z,101613.16
2022-09-12T02:06:26.130Z,101609.53
2022-09-12T02:08:54.824Z,101598.97
2022-09-12T02:11:21.691Z,101605.97
2022-09-12T02:13:53.746Z,101606.81
2022-09-12T02:16:24.254Z,101603.13
2022-09-12T02:18:57.833Z,101604.78
2022-09-12T02:21:26.097Z,101606.56
2022-09-12T02:23:56.733Z,101605.66
2022-09-12T02:26:35.430Z,101602.97
2022-09-12T02:29:02.827Z,101608.25
2022-09-12T02:31:47.985Z,101602.91
2022-09-12T02:34:23.355Z,101604.63
2022-09-12T02:37:03.451Z,101597.59
2022-09-12T02:39:29.786Z,101605.50
2022-09-12T02:41:58.447Z,101604.59
2022-09-12T02:44:25.873Z,101597.53
2022-09-12T02:46:54.783Z,101601.84
2022-09-12T02:49:21.176Z,101600.16
2022-09-12T02:51:47.763Z,101593.94
2022-09-12T02:54:15.527Z,101599.22
2022-09-12T02:56:42.933Z,101600.97
2022-09-12T02:59:10.037Z,101600.94
2022-09-12T03:01:36.535Z,101593.94
2022-09-12T03:04:25.768Z,101595.75
2022-09-12T03:07:06.546Z,101594.03
2022-09-12T03:09:49.086Z,101598.38
2022-09-12T03:12:18.437Z,101600.22
2022-09-12T03:14:51.726Z,101603.72
2022-09-12T03:17:18.089Z,101593.28
2022-09-12T03:20:01.036Z,101599.44
2022-09-12T03:22:51.221Z,101598.50
2022-09-12T03:25:22.957Z,101594.94
2022-09-12T03:27:49.197Z,101602.00
2022-09-12T03:30:15.489Z,101596.78
2022-09-12T03:32:43.054Z,101597.66
2022-09-12T03:35:10.132Z,101588.88
2022-09-12T03:37:36.445Z,101595.88
2022-09-12T03:40:04.441Z,101590.44
2022-09-12T03:42:30.797Z,101597.38
2022-09-12T03:44:57.062Z,101595.56
2022-09-12T03:47:23.363Z,101586.81
2022-09-12T03:49:49.675Z,101593.75
2022-09-12T03:52:15.910Z,101591.16
2022-09-12T03:54:42.182Z,101592.84
2022-09-12T03:57:08.428Z,101598.09
2022-09-12T03:59:34.692Z,101591.03
2022-09-12T04:02:01.031Z,101593.56
2022-09-12T04:04:27.449Z,101596.06
2022-09-12T04:06:53.725Z,101597.78
2022-09-12T04:09:20.004Z,101600.38
2022-09-12T04:11:46.351Z,101603.00
2022-09-12T04:14:12.768Z,101602.09
2022-09-12T04:16:39.170Z,101605.47
2022-09-12T04:19:05.465Z,101599.22
2022-09-12T04:21:31.982Z,101594.88
2022-09-12T04:23:58.252Z,101600.13
2022-09-12T04:26:24.553Z,101593.06
2022-09-12T04:28:53.690Z,101596.47
2022-09-12T04:31:22.532Z,101589.44
2022-09-12T04:33:53.800Z,101590.28
2022-09-12T04:36:20.081Z,101585.91
2022-09-12T04:38:47.475Z,101592.13
2022-09-12T04:41:18.540Z,101594.75
2022-09-12T04:43:47.820Z,101593.81
2022-09-12T04:46:22.324Z,101596.31
2022-09-12T04:48:52.277Z,101591.06
2022-09-12T04:51:25.865Z,101591.88
2022-09-12T04:53:52.916Z,101594.50
2022-09-12T04:56:19.979Z,101589.31
2022-09-12T04:58:46.843Z,101588.47
2022-09-12T05:01:14.913Z,101593.72
2022-09-12T05:03:44.718Z,101592.13
2022-09-12T05:06:13.184Z,101587.72
2022-09-12T05:08:39.508Z,101591.28
2022-09-12T05:11:07.004Z,101594.00
2022-09-12T05:13:33.810Z,101602.84
2022-09-12T05:16:00.923Z,101598.53
2022-09-12T05:18:27.794Z,101600.38
2022-09-12T05:20:54.952Z,101600.53
2022-09-12T05:23:21.547Z,101591.06
2022-09-12T05:25:48.669Z,101591.16
2022-09-12T05:28:15.077Z,101588.72
2022-09-12T05:30:41.386Z,101588.91
2022-09-12T05:33:07.662Z,101589.13
2022-09-12T05:35:33.924Z,101584.91
2022-09-12T05:38:00.220Z,101585.06
2022-09-12T05:40:26.514Z,101579.97
2022-09-12T05:42:53.076Z,101582.72
2022-09-12T05:45:19.333Z,101585.50
2022-09-12T05:47:48.474Z,101578.47
2022-09-12T05:50:15.110Z,101582.03
2022-09-12T05:52:41.660Z,101582.94
2022-09-12T05:55:08.174Z,101576.88
2022-09-12T05:57:34.442Z,101578.75
2022-09-12T06:00:01.159Z,101582.31
2022-09-12T06:02:27.493Z,101577.16
2022-09-12T06:04:53.853Z,101579.00
2022-09-12T06:07:20.290Z,101584.41
2022-09-12T06:09:46.559Z,101585.47
2022-09-12T06:12:13.618Z,101593.53
2022-09-12T06:14:39.892Z,101591.91
2022-09-12T06:17:06.177Z,101592.91
2022-09-12T06:19:32.480Z,101597.41
2022-09-12T06:21:58.901Z,101596.66
2022-09-12T06:24:25.149Z,101595.13
2022-09-12T06:26:52.775Z,101598.81
2022-09-12T06:29:19.440Z,101584.84
2022-09-12T06:31:45.893Z,101585.88
2022-09-12T06:34:14.049Z,101581.59
2022-09-12T06:36:41.859Z,101581.75
2022-09-12T06:39:10.936Z,101578.41
2022-09-12T06:41:41.592Z,101583.91
2022-09-12T06:44:15.497Z,101585.09
2022-09-12T06:46:42.082Z,101572.91
2022-09-12T06:49:08.621Z,101576.56
2022-09-12T06:51:36.226Z,101579.34
2022-09-12T06:54:03.042Z,101575.00
2022-09-12T06:56:29.335Z,101578.66
2022-09-12T06:58:56.672Z,101577.84
2022-09-12T07:01:27.060Z,101580.56
2022-09-12T07:03:57.507Z,101590.34
2022-09-12T07:06:24.790Z,101581.53
2022-09-12T07:08:51.056Z,101581.56
2022-09-12T07:11:20.219Z,101585.13
2022-09-12T07:13:47.579Z,101583.38
2022-09-12T07:16:19.174Z,101585.16
2022-09-12T07:18:49.952Z,101579.84
2022-09-12T07:21:16.252Z,101570.06
2022-09-12T07:23:42.836Z,101567.38
2022-09-12T07:26:13.186Z,101566.53
2022-09-12T07:28:40.029Z,101575.34
2022-09-12T07:31:07.774Z,101554.06
2022-09-12T07:33:34.324Z,101554.88
2022-09-12T07:36:01.332Z,101552.22
2022-09-12T07:38:27.681Z,101559.22
2022-09-12T07:40:53.925Z,101552.94
2022-09-12T07:43:20.233Z,101551.06
2022-09-12T07:45:46.563Z,101546.53
2022-09-12T07:48:13.763Z,101541.97
2022-09-12T07:50:44.983Z,101535.63
2022-09-12T07:53:11.578Z,101543.53
2022-09-12T07:55:37.841Z,101538.91
2022-09-12T07:58:04.281Z,101541.56
2022-09-12T08:00:35.843Z,101543.19
2022-09-12T08:03:03.015Z,101549.31
2022-09-12T08:05:29.953Z,101549.94
2022-09-12T08:07:57.844Z,101553.31
2022-09-12T08:10:24.266Z,101554.84
2022-09-12T08:12:50.873Z,101544.03
2022-09-12T08:15:17.558Z,101544.75
2022-09-12T08:17:43.808Z,101541.97
2022-09-12T08:20:10.115Z,101548.06
2022-09-12T08:22:36.398Z,101537.38
2022-09-12T08:25:02.724Z,101538.31
2022-09-12T08:27:29.029Z,101537.47
2022-09-12T08:29:55.501Z,101538.19
2022-09-12T08:32:22.017Z,101536.31
2022-09-12T08:34:48.267Z,101537.25
2022-09-12T08:37:14.727Z,101536.66
2022-09-12T08:39:41.016Z,101542.50
2022-09-12T08:44:49.473Z,101536.00
2022-09-12T08:47:21.949Z,101535.75
2022-09-12T08:49:51.557Z,101526.63
2022-09-12T08:52:21.011Z,101526.25
2022-09-12T08:54:47.535Z,101530.34
2022-09-12T08:57:15.024Z,101523.25
2022-09-12T08:59:44.683Z,101525.88
2022-09-12T09:02:24.370Z,101524.38
2022-09-12T09:04:52.023Z,101526.88
2022-09-12T09:07:18.258Z,101524.06
2022-09-12T09:09:47.331Z,101521.28
2022-09-12T09:12:23.131Z,101518.50
2022-09-12T09:14:56.436Z,101510.38
2022-09-12T09:17:24.665Z,101512.91
2022-09-12T09:19:58.024Z,101516.81
2022-09-12T09:22:40.106Z,101519.38
2022-09-12T09:25:11.173Z,101514.16
2022-09-12T09:27:41.830Z,101519.22
2022-09-12T09:30:13.096Z,101505.81
2022-09-12T09:32:41.271Z,101503.75
2022-09-12T09:35:16.398Z,101503.59
2022-09-12T09:37:58.794Z,101500.00
2022-09-12T09:40:28.911Z,101499.25
2022-09-12T09:42:58.313Z,101500.00
2022-09-12T09:45:27.637Z,101492.94
2022-09-12T09:47:57.110Z,101497.97
2022-09-12T09:50:23.922Z,101495.00
2022-09-12T09:52:51.726Z,101496.59
2022-09-12T09:55:20.938Z,101490.88
2022-09-12T09:57:48.297Z,101486.25
2022-09-12T10:00:35.192Z,101488.94
2022-09-12T10:03:04.965Z,101493.28
2022-09-12T10:05:33.438Z,101488.66
2022-09-12T10:07:59.713Z,101482.03
2022-09-12T10:10:26.189Z,101491.69
2022-09-12T10:13:06.652Z,101479.03
2022-09-12T10:15:34.652Z,101479.56
2022-09-12T10:18:03.011Z,101484.81
2022-09-12T10:20:34.414Z,101473.41
2022-09-12T10:23:02.130Z,101471.03
2022-09-12T10:25:32.192Z,101476.13
2022-09-12T10:28:00.206Z,101480.47
2022-09-12T10:30:28.393Z,101483.50
2022-09-12T10:33:05.023Z,101477.38
2022-09-12T10:35:42.080Z,101479.84
2022-09-12T10:38:13.588Z,101476.88
2022-09-12T10:40:42.747Z,101474.66
2022-09-12T10:43:26.076Z,101476.75
2022-09-12T10:45:56.530Z,101471.28
2022-09-12T10:48:22.855Z,101468.63
2022-09-12T10:50:49.137Z,101470.44
2022-09-12T10:53:18.819Z,101468.09
2022-09-12T10:56:05.459Z,101473.81
2022-09-12T10:58:50.144Z,101466.41
2022-09-12T11:01:35.227Z,101460.81
2022-09-12T11:04:20.507Z,101456.84
2022-09-12T11:06:46.746Z,101455.06
2022-09-12T11:09:15.809Z,101457.13
2022-09-12T11:12:05.072Z,101454.00
2022-09-12T11:14:51.013Z,101445.94
2022-09-12T11:17:17.307Z,101441.53
2022-09-12T11:19:43.525Z,101443.50
2022-09-12T11:22:35.210Z,101440.56
2022-09-12T11:25:07.557Z,101435.78
2022-09-12T11:27:33.829Z,101442.09
2022-09-12T11:30:18.538Z,101436.03
2022-09-12T11:32:53.732Z,101434.41
2022-09-12T11:35:30.597Z,101429.06
2022-09-12T11:38:15.016Z,101432.44
2022-09-12T11:40:56.086Z,101431.97
2022-09-12T11:43:42.099Z,101428.50
2022-09-12T11:46:20.931Z,101438.59
2022-09-12T11:48:52.499Z,101424.59
2022-09-12T11:51:19.968Z,101424.84
2022-09-12T11:53:53.108Z,101433.59
2022-09-12T11:56:19.490Z,101427.59
2022-09-12T11:58:48.182Z,101421.03
2022-09-12T12:01:20.979Z,101419.59
2022-09-12T12:03:48.009Z,101415.22
2022-09-12T12:06:19.127Z,101405.78
2022-09-12T12:11:15.354Z,101404.44
2022-09-12T12:13:47.528Z,101401.75
2022-09-12T12:16:17.125Z,101403.91
2022-09-12T12:18:44.072Z,101408.94
2022-09-12T12:21:19.960Z,101406.53
2022-09-12T12:24:05.285Z,101397.84
2022-09-12T12:26:40.750Z,101393.78
2022-09-12T12:29:11.554Z,101400.81
2022-09-12T12:31:56.808Z,101389.88
2022-09-12T12:34:34.048Z,101399.56
2022-09-12T12:37:21.044Z,101390.59
2022-09-12T12:40:03.224Z,101378.16
2022-09-12T12:42:32.821Z,101386.94
2022-09-12T12:44:59.911Z,101379.53
2022-09-12T12:47:28.410Z,101378.97
2022-09-12T12:50:02.180Z,101384.09
2022-09-12T12:52:31.455Z,101374.66
2022-09-12T12:54:59.847Z,101379.03
2022-09-12T12:57:28.248Z,101368.38
2022-09-12T13:00:39.943Z,101376.19
2022-09-12T13:03:09.051Z,101363.63
2022-09-12T13:05:39.511Z,101358.38
2022-09-12T13:08:12.046Z,101353.34
2022-09-12T13:10:38.810Z,101352.69
2022-09-12T13:13:07.559Z,101350.53
2022-09-12T13:15:36.758Z,101344.81
2022-09-12T13:18:05.989Z,101337.50
2022-09-12T13:20:35.636Z,101339.53
2022-09-12T13:23:01.908Z,101342.75
2022-09-12T13:25:28.395Z,101334.16
2022-09-12T13:28:03.881Z,101334.63
2022-09-12T13:30:31.661Z,101332.84
2022-09-12T13:32:59.229Z,101331.56
2022-09-12T13:35:38.697Z,101326.03
2022-09-12T13:38:05.133Z,101325.66
2022-09-12T13:40:34.564Z,101318.03
2022-09-12T13:43:26.254Z,101316.59
2022-09-12T13:45:52.911Z,101318.75
2022-09-12T13:48:21.897Z,101311.03
2022-09-12T13:50:52.174Z,101302.06
2022-09-12T13:53:22.041Z,101306.28
2022-09-12T13:55:52.076Z,101294.41
2022-09-12T13:58:20.516Z,101292.94
2022-09-12T14:00:47.982Z,101289.25
2022-09-12T14:03:44.035Z,101287.44
2022-09-12T14:06:11.215Z,101290.06
2022-09-12T14:08:40.764Z,101284.13
2022-09-12T14:11:11.026Z,101290.00
2022-09-12T14:13:39.055Z,101287.06
2022-09-12T14:16:08.976Z,101279.22
2022-09-12T14:18:37.498Z,101284.75
2022-09-12T14:21:11.227Z,101281.69
2022-09-12T14:23:41.540Z,101282.94
2022-09-12T14:26:11.487Z,101277.03
2022-09-12T14:28:41.770Z,101271.09
2022-09-12T14:31:08.169Z,101275.41
2022-09-12T14:33:47.714Z,101274.97
2022-09-12T14:36:35.634Z,101266.22
2022-09-12T14:39:03.437Z,101275.56
2022-09-12T14:41:32.275Z,101273.00
2022-09-12T14:44:00.392Z,101268.56
2022-09-12T14:46:30.444Z,101271.28
2022-09-12T14:48:59.428Z,101260.00
2022-09-12T14:51:34.171Z,101255.59
2022-09-12T14:54:00.803Z,101257.69
2022-09-12T14:56:41.168Z,101255.59
2022-09-12T14:59:26.448Z,101247.69
2022-09-12T15:02:17.650Z,101245.13
2022-09-12T15:04:46.200Z,101243.03
2022-09-12T15:07:28.246Z,101238.34
2022-09-12T15:09:54.608Z,101231.78
2022-09-12T15:12:24.801Z,101230.22
2022-09-12T15:14:51.143Z,101239.16
2022-09-12T15:17:17.464Z,101231.09
2022-09-12T15:19:43.775Z,101231.31
2022-09-12T15:22:13.707Z,101230.88
2022-09-12T15:24:40.109Z,101221.50
2022-09-12T15:27:11.401Z,101222.63
2022-09-12T15:29:38.485Z,101220.88
2022-09-12T15:32:06.171Z,101216.44
2022-09-12T15:34:32.827Z,101205.63
2022-09-12T15:36:59.136Z,101212.34
2022-09-12T15:39:25.559Z,101210.91
2022-09-12T15:41:52.104Z,101209.47
2022-09-12T15:44:20.103Z,101208.81
2022-09-12T15:46:46.726Z,101205.56
2022-09-12T15:49:13.106Z,101199.53
2022-09-12T15:51:40.207Z,101191.75
2022-09-12T15:54:06.562Z,101199.22
2022-09-12T15:56:32.842Z,101196.69
2022-09-12T15:59:00.057Z,101189.69
2022-09-12T16:01:26.932Z,101185.25
2022-09-12T16:03:53.505Z,101194.41
2022-09-12T16:06:19.854Z,101179.59
2022-09-12T16:08:46.184Z,101198.63
2022-09-12T16:11:18.633Z,101183.75
2022-09-12T16:13:44.899Z,101185.09
2022-09-12T16:16:11.358Z,101179.25
2022-09-12T16:18:39.732Z,101177.66
2022-09-12T16:21:08.204Z,101183.19
2022-09-12T16:23:39.337Z,101170.78
2022-09-12T16:26:06.679Z,101171.72
2022-09-12T16:28:33.442Z,101167.34
2022-09-12T16:31:01.138Z,101163.75
2022-09-12T16:33:27.821Z,101152.47
2022-09-12T16:36:01.008Z,101158.25
2022-09-12T16:38:27.265Z,101156.66
2022-09-12T16:40:59.172Z,101152.25
2022-09-12T16:43:25.415Z,101150.44
2022-09-12T16:45:59.698Z,101151.47
2022-09-12T16:48:26.091Z,101142.66
2022-09-12T16:51:01.930Z,101142.94
2022-09-12T16:53:35.268Z,101147.63
2022-09-12T16:56:07.223Z,101145.03
2022-09-12T16:58:38.511Z,101146.09
2022-09-12T17:01:08.994Z,101144.53
2022-09-12T17:03:36.392Z,101138.44
2022-09-12T17:06:04.550Z,101128.78
2022-09-12T17:08:32.725Z,101135.22
2022-09-12T17:11:00.444Z,101133.63
2022-09-12T17:13:36.662Z,101132.75
2022-09-12T17:16:13.414Z,101132.78
2022-09-12T17:18:40.115Z,101127.53
2022-09-12T17:21:07.070Z,101123.25
2022-09-12T17:23:33.581Z,101115.44
2022-09-12T17:25:59.976Z,101114.66
2022-09-12T17:28:27.141Z,101110.28
2022-09-12T17:30:57.095Z,101113.97
2022-09-12T17:33:23.700Z,101114.06
2022-09-12T17:35:49.989Z,101111.44
2022-09-12T17:38:19.360Z,101108.78
2022-09-12T17:40:58.967Z,101102.59
2022-09-12T17:43:25.582Z,101096.44
2022-09-12T17:45:56.323Z,101094.75
2022-09-12T17:48:22.714Z,101092.16
2022-09-12T17:50:48.990Z,101078.81
2022-09-12T17:53:15.236Z,101086.03
2022-09-12T17:55:41.793Z,101089.66
2022-09-12T17:58:08.053Z,101086.97
2022-09-12T18:00:53.095Z,101088.69
2022-09-12T18:03:22.959Z,101083.38
2022-09-12T18:05:52.685Z,101084.38
2022-09-12T18:08:19.235Z,101087.16
2022-09-12T18:10:45.745Z,101089.00
2022-09-12T18:13:12.440Z,101079.31
2022-09-12T18:15:38.809Z,101077.78
2022-09-12T18:18:05.782Z,101074.47
2022-09-12T18:20:32.087Z,101074.56
2022-09-12T18:22:58.652Z,101069.44
2022-09-12T18:25:25.564Z,101065.00
2022-09-12T18:27:51.978Z,101060.53
2022-09-12T18:30:21.979Z,101061.47
2022-09-12T18:32:48.962Z,101060.53
2022-09-12T18:35:15.467Z,101055.16
2022-09-12T18:37:42.252Z,101051.59
2022-09-12T18:40:09.686Z,101049.03
2022-09-12T18:42:36.157Z,101043.81
2022-09-12T18:45:02.414Z,101038.50
2022-09-12T18:47:28.673Z,101041.22
2022-09-12T18:49:55.186Z,101040.34
2022-09-12T18:52:21.457Z,101035.94
2022-09-12T18:54:47.734Z,101027.03
2022-09-12T18:57:13.992Z,101028.78
2022-09-12T18:59:40.245Z,101027.91
2022-09-12T19:02:07.049Z,101027.81
2022-09-12T19:04:33.760Z,101031.22
2022-09-12T19:07:01.483Z,101018.69
2022-09-12T19:09:27.917Z,101012.38
2022-09-12T19:11:54.275Z,101005.19
2022-09-12T19:14:25.894Z,101009.59
2022-09-12T19:16:52.740Z,101006.97
2022-09-12T19:19:19.580Z,101004.19
2022-09-12T19:21:45.968Z,101002.34
2022-09-12T19:24:13.590Z,101005.00
2022-09-12T19:26:39.974Z,101000.50
2022-09-12T19:29:06.693Z,100991.47
2022-09-12T19:31:33.110Z,100994.13
2022-09-12T19:34:04.509Z,100975.50
2022-09-12T19:36:44.833Z,100985.34
2022-09-12T19:39:12.791Z,100982.75
2022-09-12T19:41:39.599Z,100985.53
2022-09-12T19:44:06.211Z,100988.25
2022-09-12T19:46:32.866Z,100977.59
2022-09-12T19:48:59.264Z,100975.00
2022-09-12T19:51:25.986Z,100976.88
2022-09-12T19:53:52.826Z,100972.56
2022-09-12T19:56:19.729Z,100969.97
2022-09-12T19:58:49.006Z,100974.56
2022-09-12T20:01:18.510Z,100975.56
2022-09-12T20:03:45.374Z,100964.94
2022-09-12T20:06:13.288Z,100963.31
2022-09-12T20:08:43.135Z,100965.25
2022-09-12T20:11:10.762Z,100959.22
2022-09-12T20:13:37.188Z,100957.47
2022-09-12T20:16:11.105Z,100952.19
2022-09-12T20:18:38.050Z,100952.28
2022-09-12T20:21:31.198Z,100944.41
2022-09-12T20:24:02.795Z,100937.28
2022-09-12T20:26:29.265Z,100927.56
2022-09-12T20:28:55.578Z,100929.38
2022-09-12T20:31:22.007Z,100927.50
2022-09-12T20:33:51.715Z,100925.59
2022-09-12T20:36:20.404Z,100923.78
2022-09-12T20:38:50.690Z,100922.81
2022-09-12T20:41:17.984Z,100918.25
2022-09-12T20:43:44.272Z,100913.81
2022-09-12T20:46:11.543Z,100914.78
2022-09-12T20:48:38.770Z,100909.47
2022-09-12T20:51:05.191Z,100896.16
2022-09-12T20:53:34.866Z,100893.47
2022-09-12T20:56:02.029Z,100897.88
2022-09-12T20:58:28.302Z,100891.69
2022-09-12T21:00:54.617Z,100880.13
2022-09-12T21:03:20.987Z,100878.38
2022-09-12T21:05:47.265Z,100865.88
2022-09-12T21:08:14.236Z,100858.72
2022-09-12T21:10:41.978Z,100856.94
2022-09-12T21:13:12.090Z,100850.63
2022-09-12T21:15:38.713Z,100855.97
2022-09-12T21:18:05.262Z,100846.19
2022-09-12T21:20:32.207Z,100843.56
2022-09-12T21:22:58.501Z,100849.81
2022-09-12T21:25:24.762Z,100841.81
2022-09-12T21:27:51.047Z,100842.66
2022-09-12T21:30:17.426Z,100839.06
2022-09-12T21:32:43.706Z,100832.78
2022-09-12T21:35:10.059Z,100826.53
2022-09-12T21:37:36.323Z,100828.31
2022-09-12T21:40:03.264Z,100826.59
2022-09-12T21:42:29.576Z,100821.19
2022-09-12T21:44:55.953Z,100818.53
2022-09-12T21:47:22.235Z,100815.00
2022-09-12T21:49:48.514Z,100819.44
2022-09-12T21:52:14.767Z,100814.03
2022-09-12T21:54:41.018Z,100814.94
2022-09-12T21:57:07.297Z,100798.84
2022-09-12T21:59:33.591Z,100792.59
2022-09-12T22:02:00.392Z,100797.94
2022-09-12T22:04:26.785Z,100794.38
2022-09-12T22:06:53.095Z,100789.03
2022-09-12T22:09:19.344Z,100788.13
2022-09-12T22:11:46.026Z,100781.88
2022-09-12T22:14:12.708Z,100779.19
2022-09-12T22:16:38.963Z,100780.13
2022-09-12T22:19:05.517Z,100768.56
2022-09-12T22:21:31.754Z,100769.44
2022-09-12T22:24:16.916Z,100772.00
2022-09-12T22:26:44.437Z,100770.25
2022-09-12T22:29:11.169Z,100768.50
2022-09-12T22:31:37.992Z,100769.38
2022-09-12T22:34:04.772Z,100761.34
2022-09-12T22:36:31.902Z,100760.53
2022-09-12T22:38:59.167Z,100748.00
2022-09-12T22:41:25.455Z,100744.47
2022-09-12T22:43:51.806Z,100745.31
2022-09-12T22:46:18.076Z,100742.66
2022-09-12T22:48:44.465Z,100740.06
2022-09-12T22:51:11.134Z,100739.13
2022-09-12T22:53:37.556Z,100734.63
2022-09-12T22:56:05.029Z,100730.19
2022-09-12T22:58:32.075Z,100724.88
2022-09-12T23:00:58.338Z,100724.94
2022-09-12T23:03:24.792Z,100713.38
2022-09-12T23:05:51.097Z,100715.16
2022-09-12T23:08:17.687Z,100713.44
2022-09-12T23:10:44.011Z,100710.91
2022-09-12T23:13:10.537Z,100704.03
2022-09-12T23:15:37.314Z,100709.78
2022-09-12T23:18:05.151Z,100695.97
2022-09-12T23:20:31.767Z,100697.22
2022-09-12T23:22:58.058Z,100708.09
2022-09-12T23:25:26.263Z,100700.16
2022-09-12T23:27:52.801Z,100710.88
2022-09-12T23:30:21.314Z,100711.88
2022-09-12T23:32:50.679Z,100716.38
2022-09-12T23:35:19.576Z,100710.22
2022-09-12T23:37:46.486Z,100707.63
2022-09-12T23:40:12.864Z,100703.25
2022-09-12T23:42:39.205Z,100707.75
2022-09-12T23:45:05.672Z,100693.50
2022-09-12T23:47:31.951Z,100697.00
2022-09-12T23:49:58.239Z,100688.91
2022-09-12T23:52:24.519Z,100689.75
2022-09-12T23:54:50.796Z,100681.66
2022-09-12T23:57:17.052Z,100678.13
2022-09-12T23:59:43.387Z,100676.25
